sensor_id;sensor_type;location;lat;lon;timestamp;pressure;altitude;pressure_sealevel;temperature;humidity
33075;BME280;19433;51.292;6.868;2023-04-28T00:00:11;100143.94;;;8.52;100.00
33075;BME280;19433;51.292;6.868;2023-04-28T00:02:36;100128.41;;;8.44;99.77
33075;BME280;19433;51.292;6.868;2023-04-28T00:05:02;100133.88;;;8.38;100.00
33075;BME280;19433;51.292;6.868;2023-04-28T00:07:27;100114.72;;;8.30;100.00
33075;BME280;19433;51.292;6.868;2023-04-28T00:09:52;100119.31;;;8.44;100.00
33075;BME280;19433;51.292;6.868;2023-04-28T00:12:18;100114.25;;;8.48;100.00
33075;BME280;19433;51.292;6.868;2023-04-28T00:14:43;100098.41;;;8.56;100.00
33075;BME280;19433;51.292;6.868;2023-04-28T00:17:08;100087.84;;;8.53;100.00
33075;BME280;19433;51.292;6.868;2023-04-28T00:19:34;100093.56;;;8.58;100.00
33075;BME280;19433;51.292;6.868;2023-04-28T00:22:00;100100.66;;;8.67;100.00
33075;BME280;19433;51.292;6.868;2023-04-28T00:24:25;100101.03;;;8.64;100.00
33075;BME280;19433;51.292;6.868;2023-04-28T00:26:51;100092.50;;;8.53;100.00
33075;BME280;19433;51.292;6.868;2023-04-28T00:29:16;100077.53;;;8.34;100.00
33075;BME280;19433;51.292;6.868;2023-04-28T00:31:43;100062.97;;;8.19;100.00
33075;BME280;19433;51.292;6.868;2023-04-28T00:34:08;100073.31;;;8.17;100.00
33075;BME280;19433;51.292;6.868;2023-04-28T00:36:38;100075.41;;;8.15;100.00
33075;BME280;19433;51.292;6.868;2023-04-28T00:39:03;100077.72;;;8.32;100.00
33075;BME280;19433;51.292;6.868;2023-04-28T00:41:28;100069.81;;;8.51;100.00
33075;BME280;19433;51.292;6.868;2023-04-28T00:43:54;100069.22;;;8.55;100.00
33075;BME280;19433;51.292;6.868;2023-04-28T00:46:21;100058.44;;;8.60;100.00
33075;BME280;19433;51.292;6.868;2023-04-28T00:48:48;100066.47;;;8.55;100.00
33075;BME280;19433;51.292;6.868;2023-04-28T00:51:14;100059.66;;;8.51;100.00
33075;BME280;19433;51.292;6.868;2023-04-28T00:53:40;100056.72;;;8.59;100.00
33075;BME280;19433;51.292;6.868;2023-04-28T00:56:06;100071.59;;;8.65;100.00
33075;BME280;19433;51.292;6.868;2023-04-28T00:58:32;100048.47;;;8.59;100.00
33075;BME280;19433;51.292;6.868;2023-04-28T01:01:05;100069.19;;;8.90;100.00
33075;BME280;19433;51.292;6.868;2023-04-28T01:03:34;100057.97;;;8.91;100.00
33075;BME280;19433;51.292;6.868;2023-04-28T01:06:03;100065.59;;;8.89;100.00
33075;BME280;19433;51.292;6.868;2023-04-28T01:08:30;100062.13;;;8.74;100.00
33075;BME280;19433;51.292;6.868;2023-04-28T01:10:55;100059.47;;;8.59;100.00
33075;BME280;19433;51.292;6.868;2023-04-28T01:13:20;100052.25;;;8.52;100.00
33075;BME280;19433;51.292;6.868;2023-04-28T01:15:46;100059.84;;;8.50;100.00
33075;BME280;19433;51.292;6.868;2023-04-28T01:18:11;100039.72;;;8.49;100.00
33075;BME280;19433;51.292;6.868;2023-04-28T01:20:37;100048.63;;;8.51;100.00
33075;BME280;19433;51.292;6.868;2023-04-28T01:23:02;100048.25;;;8.61;100.00
33075;BME280;19433;51.292;6.868;2023-04-28T01:25:28;100050.03;;;8.68;100.00
33075;BME280;19433;51.292;6.868;2023-04-28T01:27:53;100048.41;;;8.80;100.00
33075;BME280;19433;51.292;6.868;2023-04-28T01:30:18;100032.72;;;8.81;100.00
33075;BME280;19433;51.292;6.868;2023-04-28T01:32:44;100048.78;;;8.77;100.00
33075;BME280;19433;51.292;6.868;2023-04-28T01:35:09;100040.41;;;8.92;100.00
33075;BME280;19433;51.292;6.868;2023-04-28T01:37:34;100039.28;;;8.80;100.00
33075;BME280;19433;51.292;6.868;2023-04-28T01:40:00;100045.44;;;8.82;100.00
33075;BME280;19433;51.292;6.868;2023-04-28T01:42:25;100040.09;;;8.74;100.00
33075;BME280;19433;51.292;6.868;2023-04-28T01:44:51;100044.94;;;8.72;100.00
33075;BME280;19433;51.292;6.868;2023-04-28T01:47:16;100053.00;;;8.73;100.00
33075;BME280;19433;51.292;6.868;2023-04-28T01:49:41;100040.25;;;8.66;100.00
33075;BME280;19433;51.292;6.868;2023-04-28T01:52:07;100039.84;;;8.69;100.00
33075;BME280;19433;51.292;6.868;2023-04-28T01:54:32;100052.13;;;8.66;100.00
33075;BME280;19433;51.292;6.868;2023-04-28T01:56:57;100027.50;;;8.58;100.00
33075;BME280;19433;51.292;6.868;2023-04-28T01:59:22;100030.31;;;8.71;100.00
33075;BME280;19433;51.292;6.868;2023-04-28T02:01:48;100025.03;;;8.70;100.00
33075;BME280;19433;51.292;6.868;2023-04-28T02:04:13;100028.84;;;8.69;100.00
33075;BME280;19433;51.292;6.868;2023-04-28T02:06:38;100023.34;;;8.69;100.00
33075;BME280;19433;51.292;6.868;2023-04-28T02:09:04;100029.91;;;8.74;100.00
33075;BME280;19433;51.292;6.868;2023-04-28T02:11:29;100015.53;;;8.79;100.00
33075;BME280;19433;51.292;6.868;2023-04-28T02:13:54;100005.13;;;8.68;100.00
33075;BME280;19433;51.292;6.868;2023-04-28T02:16:20;100006.03;;;8.88;100.00
33075;BME280;19433;51.292;6.868;2023-04-28T02:18:45;100010.69;;;8.81;100.00
33075;BME280;19433;51.292;6.868;2023-04-28T02:21:11;99998.22;;;8.85;100.00
33075;BME280;19433;51.292;6.868;2023-04-28T02:23:37;99996.00;;;8.74;100.00
33075;BME280;19433;51.292;6.868;2023-04-28T02:26:02;100000.13;;;8.91;100.00
33075;BME280;19433;51.292;6.868;2023-04-28T02:28:28;100005.63;;;8.85;100.00
33075;BME280;19433;51.292;6.868;2023-04-28T02:31:08;100003.72;;;8.85;100.00
33075;BME280;19433;51.292;6.868;2023-04-28T02:33:35;100004.97;;;8.82;100.00
33075;BME280;19433;51.292;6.868;2023-04-28T02:36:01;100018.09;;;8.87;100.00
33075;BME280;19433;51.292;6.868;2023-04-28T02:38:27;100021.38;;;9.04;100.00
33075;BME280;19433;51.292;6.868;2023-04-28T02:41:03;100013.75;;;9.06;100.00
33075;BME280;19433;51.292;6.868;2023-04-28T02:43:32;100008.16;;;8.86;100.00
33075;BME280;19433;51.292;6.868;2023-04-28T02:45:58;100012.19;;;8.90;100.00
33075;BME280;19433;51.292;6.868;2023-04-28T02:48:24;100010.75;;;8.94;100.00
33075;BME280;19433;51.292;6.868;2023-04-28T02:50:50;100014.34;;;8.95;100.00
33075;BME280;19433;51.292;6.868;2023-04-28T02:53:17;99998.41;;;8.84;100.00
33075;BME280;19433;51.292;6.868;2023-04-28T02:55:42;100017.94;;;8.95;100.00
33075;BME280;19433;51.292;6.868;2023-04-28T02:58:07;100009.84;;;8.80;100.00
33075;BME280;19433;51.292;6.868;2023-04-28T03:00:33;100017.31;;;8.93;100.00
33075;BME280;19433;51.292;6.868;2023-04-28T03:02:58;99998.03;;;8.93;100.00
33075;BME280;19433;51.292;6.868;2023-04-28T03:05:23;99995.66;;;8.84;100.00
33075;BME280;19433;51.292;6.868;2023-04-28T03:07:49;100008.34;;;8.78;100.00
33075;BME280;19433;51.292;6.868;2023-04-28T03:10:14;99993.25;;;8.74;100.00
33075;BME280;19433;51.292;6.868;2023-04-28T03:12:39;99980.97;;;8.70;100.00
33075;BME280;19433;51.292;6.868;2023-04-28T03:15:05;99992.53;;;8.59;100.00
33075;BME280;19433;51.292;6.868;2023-04-28T03:17:33;99987.25;;;8.57;100.00
33075;BME280;19433;51.292;6.868;2023-04-28T03:19:58;99982.78;;;8.56;100.00
33075;BME280;19433;51.292;6.868;2023-04-28T03:22:24;99978.38;;;8.62;100.00
33075;BME280;19433;51.292;6.868;2023-04-28T03:24:49;99973.78;;;8.75;100.00
33075;BME280;19433;51.292;6.868;2023-04-28T03:29:50;99978.78;;;8.59;100.00
33075;BME280;19433;51.292;6.868;2023-04-28T03:32:15;99965.31;;;8.70;100.00
33075;BME280;19433;51.292;6.868;2023-04-28T03:34:40;99957.41;;;8.61;100.00
33075;BME280;19433;51.292;6.868;2023-04-28T03:37:06;99955.06;;;8.58;100.00
33075;BME280;19433;51.292;6.868;2023-04-28T03:39:31;99961.06;;;8.68;100.00
33075;BME280;19433;51.292;6.868;2023-04-28T03:41:57;99966.13;;;8.71;100.00
33075;BME280;19433;51.292;6.868;2023-04-28T03:44:22;99948.53;;;8.72;100.00
33075;BME280;19433;51.292;6.868;2023-04-28T03:46:48;99949.84;;;8.76;100.00
33075;BME280;19433;51.292;6.868;2023-04-28T03:49:13;99947.94;;;8.76;100.00
33075;BME280;19433;51.292;6.868;2023-04-28T03:51:39;99932.66;;;8.74;100.00
33075;BME280;19433;51.292;6.868;2023-04-28T03:54:04;99939.72;;;8.90;100.00
33075;BME280;19433;51.292;6.868;2023-04-28T03:56:29;99930.19;;;8.86;100.00
33075;BME280;19433;51.292;6.868;2023-04-28T03:58:55;99928.91;;;8.88;100.00
33075;BME280;19433;51.292;6.868;2023-04-28T04:01:20;99908.78;;;8.81;100.00
33075;BME280;19433;51.292;6.868;2023-04-28T04:03:46;99911.91;;;8.71;100.00
33075;BME280;19433;51.292;6.868;2023-04-28T04:06:12;99917.63;;;8.70;100.00
33075;BME280;19433;51.292;6.868;2023-04-28T04:08:37;99913.19;;;8.75;100.00
33075;BME280;19433;51.292;6.868;2023-04-28T04:11:02;99905.81;;;8.82;100.00
33075;BME280;19433;51.292;6.868;2023-04-28T04:13:28;99897.13;;;8.92;100.00
33075;BME280;19433;51.292;6.868;2023-04-28T04:15:53;99900.50;;;8.88;100.00
33075;BME280;19433;51.292;6.868;2023-04-28T04:18:18;99885.47;;;8.90;100.00
33075;BME280;19433;51.292;6.868;2023-04-28T04:20:44;99886.31;;;8.91;100.00
33075;BME280;19433;51.292;6.868;2023-04-28T04:23:09;99885.31;;;8.98;100.00
33075;BME280;19433;51.292;6.868;2023-04-28T04:25:34;99896.53;;;8.97;100.00
33075;BME280;19433;51.292;6.868;2023-04-28T04:28:00;99910.75;;;9.00;100.00
33075;BME280;19433;51.292;6.868;2023-04-28T04:30:25;99918.16;;;9.06;100.00
33075;BME280;19433;51.292;6.868;2023-04-28T04:32:51;99907.34;;;9.05;100.00
33075;BME280;19433;51.292;6.868;2023-04-28T04:35:16;99906.28;;;9.06;100.00
33075;BME280;19433;51.292;6.868;2023-04-28T04:37:41;99900.78;;;9.06;100.00
33075;BME280;19433;51.292;6.868;2023-04-28T04:40:07;99915.63;;;9.18;100.00
33075;BME280;19433;51.292;6.868;2023-04-28T04:42:33;99909.94;;;9.33;100.00
33075;BME280;19433;51.292;6.868;2023-04-28T04:44:58;99891.47;;;9.13;100.00
33075;BME280;19433;51.292;6.868;2023-04-28T04:47:23;99898.03;;;9.19;100.00
33075;BME280;19433;51.292;6.868;2023-04-28T04:49:49;99904.88;;;9.30;100.00
33075;BME280;19433;51.292;6.868;2023-04-28T04:52:15;99876.19;;;9.17;100.00
33075;BME280;19433;51.292;6.868;2023-04-28T04:54:40;99886.22;;;9.32;100.00
33075;BME280;19433;51.292;6.868;2023-04-28T04:57:06;99891.06;;;9.36;100.00
33075;BME280;19433;51.292;6.868;2023-04-28T04:59:31;99895.06;;;9.21;100.00
33075;BME280;19433;51.292;6.868;2023-04-28T05:01:57;99891.47;;;9.33;100.00
33075;BME280;19433;51.292;6.868;2023-04-28T05:04:22;99901.25;;;9.56;100.00
33075;BME280;19433;51.292;6.868;2023-04-28T05:06:47;99902.09;;;9.49;100.00
33075;BME280;19433;51.292;6.868;2023-04-28T05:09:13;99900.22;;;9.57;100.00
33075;BME280;19433;51.292;6.868;2023-04-28T05:11:38;99898.06;;;9.52;100.00
33075;BME280;19433;51.292;6.868;2023-04-28T05:14:03;99894.25;;;9.53;100.00
33075;BME280;19433;51.292;6.868;2023-04-28T05:16:29;99900.22;;;9.57;100.00
33075;BME280;19433;51.292;6.868;2023-04-28T05:18:55;99893.63;;;9.71;100.00
33075;BME280;19433;51.292;6.868;2023-04-28T05:21:20;99891.91;;;9.90;100.00
33075;BME280;19433;51.292;6.868;2023-04-28T05:23:45;99885.78;;;9.68;100.00
33075;BME280;19433;51.292;6.868;2023-04-28T05:26:11;99888.72;;;9.79;100.00
33075;BME280;19433;51.292;6.868;2023-04-28T05:28:38;99881.50;;;9.78;100.00
33075;BME280;19433;51.292;6.868;2023-04-28T05:31:04;99870.47;;;9.92;100.00
33075;BME280;19433;51.292;6.868;2023-04-28T05:33:30;99872.59;;;9.90;100.00
33075;BME280;19433;51.292;6.868;2023-04-28T05:35:55;99862.41;;;9.90;100.00
33075;BME280;19433;51.292;6.868;2023-04-28T05:38:21;99880.38;;;10.26;100.00
33075;BME280;19433;51.292;6.868;2023-04-28T05:40:46;99873.00;;;10.19;100.00
33075;BME280;19433;51.292;6.868;2023-04-28T05:43:11;99885.25;;;10.30;100.00
33075;BME280;19433;51.292;6.868;2023-04-28T05:45:37;99878.03;;;10.36;100.00
33075;BME280;19433;51.292;6.868;2023-04-28T05:48:02;99870.41;;;10.31;100.00
33075;BME280;19433;51.292;6.868;2023-04-28T05:50:29;99887.34;;;10.48;100.00
33075;BME280;19433;51.292;6.868;2023-04-28T05:52:54;99874.81;;;10.45;100.00
33075;BME280;19433;51.292;6.868;2023-04-28T05:55:20;99884.50;;;10.61;100.00
33075;BME280;19433;51.292;6.868;2023-04-28T05:57:46;99873.69;;;10.60;100.00
33075;BME280;19433;51.292;6.868;2023-04-28T06:00:12;99873.81;;;10.78;100.00
33075;BME280;19433;51.292;6.868;2023-04-28T06:02:37;99875.72;;;10.84;100.00
33075;BME280;19433;51.292;6.868;2023-04-28T06:05:03;99867.78;;;10.87;100.00
33075;BME280;19433;51.292;6.868;2023-04-28T06:07:28;99856.97;;;10.86;100.00
33075;BME280;19433;51.292;6.868;2023-04-28T06:09:53;99859.47;;;10.94;100.00
33075;BME280;19433;51.292;6.868;2023-04-28T06:12:18;99866.22;;;11.05;100.00
33075;BME280;19433;51.292;6.868;2023-04-28T06:14:44;99865.28;;;11.17;100.00
33075;BME280;19433;51.292;6.868;2023-04-28T06:17:09;99854.69;;;11.39;99.62
33075;BME280;19433;51.292;6.868;2023-04-28T06:19:35;99849.34;;;11.69;97.86
33075;BME280;19433;51.292;6.868;2023-04-28T06:22:00;99837.59;;;11.74;97.97
33075;BME280;19433;51.292;6.868;2023-04-28T06:24:25;99851.34;;;12.05;97.40
33075;BME280;19433;51.292;6.868;2023-04-28T06:26:51;99844.88;;;12.11;95.72
33075;BME280;19433;51.292;6.868;2023-04-28T06:29:16;99851.34;;;12.05;95.83
33075;BME280;19433;51.292;6.868;2023-04-28T06:31:41;99835.44;;;12.19;95.43
33075;BME280;19433;51.292;6.868;2023-04-28T06:34:06;99855.41;;;12.39;93.87
33075;BME280;19433;51.292;6.868;2023-04-28T06:36:32;99849.06;;;12.68;93.91
33075;BME280;19433;51.292;6.868;2023-04-28T06:38:57;99855.34;;;12.94;91.61
33075;BME280;19433;51.292;6.868;2023-04-28T06:41:23;99858.16;;;13.06;91.78
33075;BME280;19433;51.292;6.868;2023-04-28T06:43:48;99863.06;;;13.22;90.34
33075;BME280;19433;51.292;6.868;2023-04-28T06:46:15;99872.28;;;13.34;89.92
33075;BME280;19433;51.292;6.868;2023-04-28T06:48:40;99879.31;;;13.48;88.91
33075;BME280;19433;51.292;6.868;2023-04-28T06:51:05;99875.06;;;13.46;89.20
33075;BME280;19433;51.292;6.868;2023-04-28T06:53:31;99870.88;;;13.13;91.18
33075;BME280;19433;51.292;6.868;2023-04-28T06:55:56;99873.22;;;12.98;90.95
33075;BME280;19433;51.292;6.868;2023-04-28T06:58:22;99864.06;;;12.97;91.39
33075;BME280;19433;51.292;6.868;2023-04-28T07:00:47;99855.25;;;13.00;90.87
33075;BME280;19433;51.292;6.868;2023-04-28T07:03:12;99848.84;;;13.00;92.22
33075;BME280;19433;51.292;6.868;2023-04-28T07:05:38;99853.09;;;13.02;92.22
33075;BME280;19433;51.292;6.868;2023-04-28T07:08:03;99859.22;;;13.23;91.14
33075;BME280;19433;51.292;6.868;2023-04-28T07:10:28;99853.91;;;13.21;90.32
33075;BME280;19433;51.292;6.868;2023-04-28T07:12:54;99859.47;;;13.33;89.34
33075;BME280;19433;51.292;6.868;2023-04-28T07:15:19;99855.66;;;13.46;90.67
33075;BME280;19433;51.292;6.868;2023-04-28T07:17:44;99864.41;;;13.19;89.77
33075;BME280;19433;51.292;6.868;2023-04-28T07:20:10;99851.22;;;13.15;90.63
33075;BME280;19433;51.292;6.868;2023-04-28T07:22:36;99853.63;;;13.11;91.75
33075;BME280;19433;51.292;6.868;2023-04-28T07:25:02;99866.44;;;12.94;91.39
33075;BME280;19433;51.292;6.868;2023-04-28T07:27:28;99859.94;;;13.00;91.02
33075;BME280;19433;51.292;6.868;2023-04-28T07:29:54;99866.47;;;13.24;90.29
33075;BME280;19433;51.292;6.868;2023-04-28T07:32:19;99865.78;;;13.28;90.07
33075;BME280;19433;51.292;6.868;2023-04-28T07:34:44;99853.31;;;13.01;90.72
33075;BME280;19433;51.292;6.868;2023-04-28T07:37:10;99845.34;;;12.93;92.51
33075;BME280;19433;51.292;6.868;2023-04-28T07:39:36;99852.06;;;13.15;92.12
33075;BME280;19433;51.292;6.868;2023-04-28T07:42:03;99863.00;;;13.40;89.96
33075;BME280;19433;51.292;6.868;2023-04-28T07:44:28;99873.41;;;13.15;90.35
33075;BME280;19433;51.292;6.868;2023-04-28T07:46:54;99874.38;;;12.90;92.31
33075;BME280;19433;51.292;6.868;2023-04-28T07:49:20;99867.47;;;12.81;92.59
33075;BME280;19433;51.292;6.868;2023-04-28T07:51:45;99861.81;;;12.88;93.20
33075;BME280;19433;51.292;6.868;2023-04-28T07:54:11;99877.25;;;13.14;92.89
33075;BME280;19433;51.292;6.868;2023-04-28T07:56:36;99887.44;;;13.20;91.72
33075;BME280;19433;51.292;6.868;2023-04-28T07:59:02;99883.91;;;13.13;91.76
33075;BME280;19433;51.292;6.868;2023-04-28T08:01:27;99894.06;;;13.00;92.88
33075;BME280;19433;51.292;6.868;2023-04-28T08:03:52;99882.00;;;12.95;92.85
33075;BME280;19433;51.292;6.868;2023-04-28T08:06:18;99876.78;;;12.87;93.86
33075;BME280;19433;51.292;6.868;2023-04-28T08:08:43;99884.16;;;12.93;93.38
33075;BME280;19433;51.292;6.868;2023-04-28T08:11:09;99877.13;;;13.09;92.68
33075;BME280;19433;51.292;6.868;2023-04-28T08:13:35;99858.25;;;12.99;93.65
33075;BME280;19433;51.292;6.868;2023-04-28T08:16:00;99868.47;;;13.17;93.90
33075;BME280;19433;51.292;6.868;2023-04-28T08:18:26;99866.09;;;13.20;94.59
33075;BME280;19433;51.292;6.868;2023-04-28T08:20:52;99860.38;;;12.85;98.23
33075;BME280;19433;51.292;6.868;2023-04-28T08:23:17;99862.34;;;12.66;100.00
33075;BME280;19433;51.292;6.868;2023-04-28T08:25:43;99843.47;;;12.57;100.00
33075;BME280;19433;51.292;6.868;2023-04-28T08:28:09;99868.81;;;12.42;100.00
33075;BME280;19433;51.292;6.868;2023-04-28T08:30:34;99865.97;;;12.49;100.00
33075;BME280;19433;51.292;6.868;2023-04-28T08:32:59;99862.34;;;12.66;100.00
33075;BME280;19433;51.292;6.868;2023-04-28T08:35:25;99878.34;;;12.64;100.00
33075;BME280;19433;51.292;6.868;2023-04-28T08:37:51;99867.41;;;13.18;100.00
33075;BME280;19433;51.292;6.868;2023-04-28T08:40:17;99864.00;;;13.16;100.00
33075;BME280;19433;51.292;6.868;2023-04-28T08:42:43;99868.53;;;12.98;100.00
33075;BME280;19433;51.292;6.868;2023-04-28T08:45:15;99867.31;;;13.24;100.00
33075;BME280;19433;51.292;6.868;2023-04-28T08:47:41;99879.47;;;13.77;99.01
33075;BME280;19433;51.292;6.868;2023-04-28T08:50:10;99882.13;;;13.71;98.55
33075;BME280;19433;51.292;6.868;2023-04-28T08:52:37;99878.28;;;13.72;98.51
33075;BME280;19433;51.292;6.868;2023-04-28T08:55:06;99871.88;;;13.72;99.23
33075;BME280;19433;51.292;6.868;2023-04-28T08:57:36;99876.81;;;13.93;97.91
33075;BME280;19433;51.292;6.868;2023-04-28T09:00:02;99879.63;;;14.05;96.67
33075;BME280;19433;51.292;6.868;2023-04-28T09:02:28;99881.56;;;14.04;97.34
33075;BME280;19433;51.292;6.868;2023-04-28T09:04:53;99890.84;;;14.10;96.96
33075;BME280;19433;51.292;6.868;2023-04-28T09:07:18;99885.06;;;13.88;98.26
33075;BME280;19433;51.292;6.868;2023-04-28T09:09:44;99890.38;;;13.36;100.00
33075;BME280;19433;51.292;6.868;2023-04-28T09:12:09;99884.66;;;13.01;100.00
33075;BME280;19433;51.292;6.868;2023-04-28T09:14:37;99873.75;;;12.88;100.00
33075;BME280;19433;51.292;6.868;2023-04-28T09:17:11;99864.72;;;12.81;100.00
33075;BME280;19433;51.292;6.868;2023-04-28T09:19:38;99866.72;;;13.04;100.00
33075;BME280;19433;51.292;6.868;2023-04-28T09:22:05;99872.34;;;13.16;100.00
33075;BME280;19433;51.292;6.868;2023-04-28T09:24:31;99861.66;;;13.31;100.00
33075;BME280;19433;51.292;6.868;2023-04-28T09:26:58;99871.59;;;13.50;100.00
33075;BME280;19433;51.292;6.868;2023-04-28T09:29:24;99868.13;;;13.78;100.00
33075;BME280;19433;51.292;6.868;2023-04-28T09:31:49;99876.13;;;13.75;99.99
33075;BME280;19433;51.292;6.868;2023-04-28T09:34:14;99878.88;;;13.75;98.10
33075;BME280;19433;51.292;6.868;2023-04-28T09:36:40;99874.03;;;13.58;99.25
33075;BME280;19433;51.292;6.868;2023-04-28T09:39:06;99872.41;;;13.39;100.00
33075;BME280;19433;51.292;6.868;2023-04-28T09:41:38;99862.03;;;13.46;100.00
33075;BME280;19433;51.292;6.868;2023-04-28T09:44:18;99880.69;;;13.69;100.00
33075;BME280;19433;51.292;6.868;2023-04-28T09:46:46;99871.41;;;13.87;100.00
33075;BME280;19433;51.292;6.868;2023-04-28T09:49:12;99882.03;;;14.01;99.30
33075;BME280;19433;51.292;6.868;2023-04-28T09:51:38;99870.09;;;14.01;99.66
33075;BME280;19433;51.292;6.868;2023-04-28T09:54:04;99867.53;;;13.99;98.97
33075;BME280;19433;51.292;6.868;2023-04-28T09:56:31;99861.72;;;13.78;100.00
33075;BME280;19433;51.292;6.868;2023-04-28T09:58:58;99861.63;;;13.84;100.00
33075;BME280;19433;51.292;6.868;2023-04-28T10:01:26;99864.28;;;14.02;100.00
33075;BME280;19433;51.292;6.868;2023-04-28T10:03:52;99866.16;;;14.37;100.00
33075;BME280;19433;51.292;6.868;2023-04-28T10:06:18;99872.72;;;14.42;99.19
33075;BME280;19433;51.292;6.868;2023-04-28T10:08:44;99875.63;;;14.13;100.00
33075;BME280;19433;51.292;6.868;2023-04-28T10:11:13;99871.28;;;14.28;99.61
33075;BME280;19433;51.292;6.868;2023-04-28T10:13:43;99861.50;;;14.14;100.00
33075;BME280;19433;51.292;6.868;2023-04-28T10:16:13;99874.91;;;14.40;100.00
33075;BME280;19433;51.292;6.868;2023-04-28T10:18:38;99873.69;;;14.25;100.00
33075;BME280;19433;51.292;6.868;2023-04-28T10:21:05;99864.63;;;13.94;100.00
33075;BME280;19433;51.292;6.868;2023-04-28T10:24:06;99859.94;;;14.18;100.00
33075;BME280;19433;51.292;6.868;2023-04-28T10:27:02;99866.13;;;14.72;100.00
33075;BME280;19433;51.292;6.868;2023-04-28T10:29:32;99856.41;;;14.86;98.33
33075;BME280;19433;51.292;6.868;2023-04-28T10:34:41;99862.81;;;14.87;98.34
33075;BME280;19433;51.292;6.868;2023-04-28T10:37:06;99870.16;;;14.64;99.50
33075;BME280;19433;51.292;6.868;2023-04-28T10:39:32;99861.47;;;14.37;100.00
33075;BME280;19433;51.292;6.868;2023-04-28T10:41:57;99862.81;;;14.47;100.00
33075;BME280;19433;51.292;6.868;2023-04-28T10:47:03;99871.06;;;14.82;100.00
33075;BME280;19433;51.292;6.868;2023-04-28T10:55:36;99869.50;;;14.74;100.00
33075;BME280;19433;51.292;6.868;2023-04-28T11:00:52;99862.81;;;14.35;100.00
33075;BME280;19433;51.292;6.868;2023-04-28T11:06:25;99859.09;;;14.81;100.00
33075;BME280;19433;51.292;6.868;2023-04-28T11:11:21;99873.34;;;14.85;100.00
33075;BME280;19433;51.292;6.868;2023-04-28T11:13:48;99863.22;;;14.67;100.00
33075;BME280;19433;51.292;6.868;2023-04-28T11:16:15;99857.31;;;15.03;100.00
33075;BME280;19433;51.292;6.868;2023-04-28T11:18:48;99859.31;;;14.91;100.00
33075;BME280;19433;51.292;6.868;2023-04-28T11:21:14;99851.63;;;14.98;100.00
33075;BME280;19433;51.292;6.868;2023-04-28T11:23:41;99850.53;;;14.99;100.00
33075;BME280;19433;51.292;6.868;2023-04-28T11:26:07;99851.34;;;14.83;100.00
33075;BME280;19433;51.292;6.868;2023-04-28T11:28:32;99851.78;;;14.63;100.00
33075;BME280;19433;51.292;6.868;2023-04-28T11:31:15;99851.63;;;14.82;100.00
33075;BME280;19433;51.292;6.868;2023-04-28T11:36:30;99862.66;;;14.65;100.00
33075;BME280;19433;51.292;6.868;2023-04-28T11:39:00;99860.38;;;14.62;100.00
33075;BME280;19433;51.292;6.868;2023-04-28T11:41:25;99857.09;;;14.65;100.00
33075;BME280;19433;51.292;6.868;2023-04-28T11:43:51;99854.28;;;14.76;100.00
33075;BME280;19433;51.292;6.868;2023-04-28T11:46:18;99849.06;;;14.80;100.00
33075;BME280;19433;51.292;6.868;2023-04-28T11:48:44;99854.28;;;14.76;100.00
33075;BME280;19433;51.292;6.868;2023-04-28T11:51:09;99853.72;;;14.63;100.00
33075;BME280;19433;51.292;6.868;2023-04-28T11:53:42;99857.59;;;14.62;100.00
33075;BME280;19433;51.292;6.868;2023-04-28T11:56:08;99853.50;;;14.93;100.00
33075;BME280;19433;51.292;6.868;2023-04-28T11:58:34;99858.84;;;15.39;100.00
33075;BME280;19433;51.292;6.868;2023-04-28T12:01:10;99849.84;;;15.66;100.00
33075;BME280;19433;51.292;6.868;2023-04-28T12:03:45;99853.03;;;16.08;100.00
33075;BME280;19433;51.292;6.868;2023-04-28T12:06:11;99853.22;;;16.40;100.00
33075;BME280;19433;51.292;6.868;2023-04-28T12:08:36;99854.72;;;16.47;100.00
33075;BME280;19433;51.292;6.868;2023-04-28T12:11:09;99855.31;;;16.49;100.00
33075;BME280;19433;51.292;6.868;2023-04-28T12:13:37;99849.41;;;16.46;100.00
33075;BME280;19433;51.292;6.868;2023-04-28T12:16:04;99867.69;;;16.59;100.00
33075;BME280;19433;51.292;6.868;2023-04-28T12:18:34;99868.69;;;16.69;100.00
33075;BME280;19433;51.292;6.868;2023-04-28T12:21:03;99855.78;;;16.85;100.00
33075;BME280;19433;51.292;6.868;2023-04-28T12:23:30;99857.59;;;17.50;100.00
33075;BME280;19433;51.292;6.868;2023-04-28T12:25:59;99862.25;;;17.98;97.65
33075;BME280;19433;51.292;6.868;2023-04-28T12:28:37;99856.88;;;18.81;97.91
33075;BME280;19433;51.292;6.868;2023-04-28T12:31:05;99866.63;;;20.37;88.19
33075;BME280;19433;51.292;6.868;2023-04-28T12:33:31;99876.63;;;21.82;81.11
33075;BME280;19433;51.292;6.868;2023-04-28T12:36:04;99872.16;;;22.44;77.63
33075;BME280;19433;51.292;6.868;2023-04-28T12:38:31;99874.53;;;22.61;72.96
33075;BME280;19433;51.292;6.868;2023-04-28T12:40:57;99865.63;;;22.49;71.58
33075;BME280;19433;51.292;6.868;2023-04-28T12:43:23;99869.06;;;22.69;70.47
33075;BME280;19433;51.292;6.868;2023-04-28T12:45:49;99874.00;;;22.83;69.97
33075;BME280;19433;51.292;6.868;2023-04-28T12:48:14;99863.28;;;22.85;71.59
33075;BME280;19433;51.292;6.868;2023-04-28T12:50:40;99857.66;;;21.59;73.58
33075;BME280;19433;51.292;6.868;2023-04-28T12:53:05;99861.16;;;21.46;75.86
33075;BME280;19433;51.292;6.868;2023-04-28T12:55:30;99852.69;;;20.96;77.37
33075;BME280;19433;51.292;6.868;2023-04-28T12:57:56;99859.34;;;20.31;77.01
33075;BME280;19433;51.292;6.868;2023-04-28T13:00:21;99845.38;;;19.85;78.56
33075;BME280;19433;51.292;6.868;2023-04-28T13:02:49;99849.84;;;19.81;80.15
33075;BME280;19433;51.292;6.868;2023-04-28T13:05:14;99841.84;;;21.29;74.37
33075;BME280;19433;51.292;6.868;2023-04-28T13:07:40;99852.91;;;21.93;70.90
33075;BME280;19433;51.292;6.868;2023-04-28T13:10:06;99849.25;;;22.27;71.32
33075;BME280;19433;51.292;6.868;2023-04-28T13:12:32;99844.25;;;22.19;68.69
33075;BME280;19433;51.292;6.868;2023-04-28T13:15:00;99840.84;;;22.98;67.53